Webster Mills, Pennsylvania
Current Conditions -  °F | °C
As of 8:01 AM on Thursday 27 Nov 2014 (Local Time) from KHGR Reporting Station
Haze Haze  
Wind Chill: 34°   Ceiling: 3100
Heat Index: 34°   Visibility: 3mi
Dew Point: 31°   Wind: 0mph
Humidity: 89%   Direction: NA
Pressure: 30.03"   Gusts: NA
Location:  39.973°N, 77.9661°W
Report Text: KHGR 271301Z 00000KT 3SM BR SCT027 BKN031 OVC060 01/M01 A3003 RMK AO2 T00111006 $
Loading
Personal Weather Stations






























Interactive Weather Map New forecast layout! Learn more

10-Day Weather Forecast

Advertisements
Track Severe Weather on mobile